Uttoxeter, United Kingdom
Current Conditions -  °F | °C
As of 11:20 PM on Monday 20 Oct 2014 (Local Time) from EGNX Reporting Station
Few Clouds Few Clouds  
Wind Chill: 52°   Ceiling: Unl
Heat Index: 52°   Visibility: 6mi
Dew Point: 50°   Wind: 15mph
Humidity: 94%   Direction: 200°SSW
Pressure: 29.77"   Gusts: NA
Location:  52.9°N, 1.86°W
Report Text: EGNX 202220Z 20013KT 9999 FEW010 11/10 Q1008
Loading
Personal Weather Stations






























Interactive Weather Map New forecast layout! Learn more

10-Day Weather Forecast

Advertisements
Track Severe Weather on mobile